sensor_id;sensor_type;location;lat;lon;timestamp;P1;durP1;ratioP1;P2;durP2;ratioP2
69910;SDS011;63555;49.920;17.868;2023-03-05T00:04:01;15.50;;;4.23;;
69910;SDS011;63555;49.920;17.868;2023-03-05T00:09:03;9.25;;;2.63;;
69910;SDS011;63555;49.920;17.868;2023-03-05T00:14:04;11.00;;;2.50;;
69910;SDS011;63555;49.920;17.868;2023-03-05T00:19:05;11.85;;;2.42;;
69910;SDS011;63555;49.920;17.868;2023-03-05T00:24:07;7.40;;;2.10;;
69910;SDS011;63555;49.920;17.868;2023-03-05T00:29:11;10.30;;;2.90;;
69910;SDS011;63555;49.920;17.868;2023-03-05T00:34:17;7.07;;;2.08;;
69910;SDS011;63555;49.920;17.868;2023-03-05T00:39:19;11.02;;;1.90;;
69910;SDS011;63555;49.920;17.868;2023-03-05T00:44:19;9.27;;;2.13;;
69910;SDS011;63555;49.920;17.868;2023-03-05T00:49:20;7.57;;;1.70;;
69910;SDS011;63555;49.920;17.868;2023-03-05T00:54:20;8.67;;;2.23;;
69910;SDS011;63555;49.920;17.868;2023-03-05T00:59:21;10.15;;;2.08;;
69910;SDS011;63555;49.920;17.868;2023-03-05T01:04:21;5.90;;;1.80;;
69910;SDS011;63555;49.920;17.868;2023-03-05T01:09:22;7.90;;;2.23;;
69910;SDS011;63555;49.920;17.868;2023-03-05T01:14:24;10.63;;;2.17;;
69910;SDS011;63555;49.920;17.868;2023-03-05T01:19:26;6.03;;;2.30;;
69910;SDS011;63555;49.920;17.868;2023-03-05T01:24:27;9.45;;;2.38;;
69910;SDS011;63555;49.920;17.868;2023-03-05T01:29:27;7.18;;;2.50;;
69910;SDS011;63555;49.920;17.868;2023-03-05T01:34:27;8.90;;;2.30;;
69910;SDS011;63555;49.920;17.868;2023-03-05T01:39:28;8.27;;;1.90;;
69910;SDS011;63555;49.920;17.868;2023-03-05T01:44:29;5.00;;;1.60;;
69910;SDS011;63555;49.920;17.868;2023-03-05T01:49:31;5.72;;;1.85;;
69910;SDS011;63555;49.920;17.868;2023-03-05T01:54:48;6.30;;;1.85;;
69910;SDS011;63555;49.920;17.868;2023-03-05T01:59:55;8.03;;;1.97;;
69910;SDS011;63555;49.920;17.868;2023-03-05T02:05:03;6.82;;;2.17;;
69910;SDS011;63555;49.920;17.868;2023-03-05T02:10:17;10.48;;;3.20;;
69910;SDS011;63555;49.920;17.868;2023-03-05T02:15:37;12.85;;;2.92;;
69910;SDS011;63555;49.920;17.868;2023-03-05T02:25:56;9.10;;;2.47;;
69910;SDS011;63555;49.920;17.868;2023-03-05T02:30:57;8.77;;;2.77;;
69910;SDS011;63555;49.920;17.868;2023-03-05T02:35:57;7.07;;;2.00;;
69910;SDS011;63555;49.920;17.868;2023-03-05T02:40:58;4.90;;;1.87;;
69910;SDS011;63555;49.920;17.868;2023-03-05T02:45:58;6.37;;;1.97;;
69910;SDS011;63555;49.920;17.868;2023-03-05T02:50:59;6.93;;;1.83;;
69910;SDS011;63555;49.920;17.868;2023-03-05T02:56:01;5.15;;;1.95;;
69910;SDS011;63555;49.920;17.868;2023-03-05T03:01:02;8.38;;;1.83;;
69910;SDS011;63555;49.920;17.868;2023-03-05T03:06:03;11.60;;;2.50;;
69910;SDS011;63555;49.920;17.868;2023-03-05T03:11:04;12.07;;;2.20;;
69910;SDS011;63555;49.920;17.868;2023-03-05T03:16:07;7.10;;;1.80;;
69910;SDS011;63555;49.920;17.868;2023-03-05T03:21:15;6.60;;;1.87;;
69910;SDS011;63555;49.920;17.868;2023-03-05T03:26:20;9.13;;;2.40;;
69910;SDS011;63555;49.920;17.868;2023-03-05T03:31:20;8.30;;;2.30;;
69910;SDS011;63555;49.920;17.868;2023-03-05T03:36:21;6.70;;;2.37;;
69910;SDS011;63555;49.920;17.868;2023-03-05T03:41:21;4.37;;;1.70;;
69910;SDS011;63555;49.920;17.868;2023-03-05T03:46:21;12.23;;;2.43;;
69910;SDS011;63555;49.920;17.868;2023-03-05T03:51:22;12.87;;;2.50;;
69910;SDS011;63555;49.920;17.868;2023-03-05T03:56:22;7.57;;;2.13;;
69910;SDS011;63555;49.920;17.868;2023-03-05T04:01:22;7.23;;;2.00;;
69910;SDS011;63555;49.920;17.868;2023-03-05T04:06:23;11.70;;;2.10;;
69910;SDS011;63555;49.920;17.868;2023-03-05T04:11:23;5.40;;;2.00;;
69910;SDS011;63555;49.920;17.868;2023-03-05T04:16:24;11.43;;;2.03;;
69910;SDS011;63555;49.920;17.868;2023-03-05T04:21:25;7.40;;;2.00;;
69910;SDS011;63555;49.920;17.868;2023-03-05T04:26:25;7.03;;;1.93;;
69910;SDS011;63555;49.920;17.868;2023-03-05T04:31:25;6.43;;;2.03;;
69910;SDS011;63555;49.920;17.868;2023-03-05T04:36:26;9.13;;;2.00;;
69910;SDS011;63555;49.920;17.868;2023-03-05T04:41:26;7.57;;;2.17;;
69910;SDS011;63555;49.920;17.868;2023-03-05T04:46:30;11.53;;;3.00;;
69910;SDS011;63555;49.920;17.868;2023-03-05T04:51:30;5.57;;;1.87;;
69910;SDS011;63555;49.920;17.868;2023-03-05T04:56:30;13.37;;;3.20;;
69910;SDS011;63555;49.920;17.868;2023-03-05T05:01:31;10.07;;;3.37;;
69910;SDS011;63555;49.920;17.868;2023-03-05T05:06:34;9.10;;;2.95;;
69910;SDS011;63555;49.920;17.868;2023-03-05T05:11:34;8.33;;;2.30;;
69910;SDS011;63555;49.920;17.868;2023-03-05T05:16:34;8.87;;;3.00;;
69910;SDS011;63555;49.920;17.868;2023-03-05T05:21:35;10.93;;;2.50;;
69910;SDS011;63555;49.920;17.868;2023-03-05T05:26:35;8.30;;;2.37;;
69910;SDS011;63555;49.920;17.868;2023-03-05T05:31:35;12.77;;;2.93;;
69910;SDS011;63555;49.920;17.868;2023-03-05T05:36:36;9.13;;;2.60;;
69910;SDS011;63555;49.920;17.868;2023-03-05T05:41:36;11.57;;;3.53;;
69910;SDS011;63555;49.920;17.868;2023-03-05T05:46:37;11.27;;;4.17;;
69910;SDS011;63555;49.920;17.868;2023-03-05T05:51:37;9.67;;;2.97;;
69910;SDS011;63555;49.920;17.868;2023-03-05T05:56:38;8.87;;;3.40;;
69910;SDS011;63555;49.920;17.868;2023-03-05T06:01:38;9.70;;;3.13;;
69910;SDS011;63555;49.920;17.868;2023-03-05T06:06:39;12.17;;;3.50;;
69910;SDS011;63555;49.920;17.868;2023-03-05T06:11:39;10.93;;;3.40;;
69910;SDS011;63555;49.920;17.868;2023-03-05T06:16:40;14.50;;;4.30;;
69910;SDS011;63555;49.920;17.868;2023-03-05T06:21:41;11.85;;;4.20;;
69910;SDS011;63555;49.920;17.868;2023-03-05T06:26:42;11.73;;;2.87;;
69910;SDS011;63555;49.920;17.868;2023-03-05T06:31:42;12.87;;;2.90;;
69910;SDS011;63555;49.920;17.868;2023-03-05T06:36:43;11.77;;;3.37;;
69910;SDS011;63555;49.920;17.868;2023-03-05T06:41:43;12.97;;;3.20;;
69910;SDS011;63555;49.920;17.868;2023-03-05T06:46:43;9.07;;;2.73;;
69910;SDS011;63555;49.920;17.868;2023-03-05T06:51:44;10.87;;;4.33;;
69910;SDS011;63555;49.920;17.868;2023-03-05T06:56:45;10.93;;;4.53;;
69910;SDS011;63555;49.920;17.868;2023-03-05T07:01:46;16.38;;;5.18;;
69910;SDS011;63555;49.920;17.868;2023-03-05T07:06:47;15.82;;;4.68;;
69910;SDS011;63555;49.920;17.868;2023-03-05T07:11:47;22.73;;;5.13;;
69910;SDS011;63555;49.920;17.868;2023-03-05T07:16:47;23.93;;;7.97;;
69910;SDS011;63555;49.920;17.868;2023-03-05T07:21:49;16.58;;;6.50;;
69910;SDS011;63555;49.920;17.868;2023-03-05T07:26:49;15.67;;;5.00;;
69910;SDS011;63555;49.920;17.868;2023-03-05T07:31:50;16.20;;;5.67;;
69910;SDS011;63555;49.920;17.868;2023-03-05T07:36:51;19.15;;;6.20;;
69910;SDS011;63555;49.920;17.868;2023-03-05T07:41:53;17.97;;;6.80;;
69910;SDS011;63555;49.920;17.868;2023-03-05T07:46:53;17.63;;;6.47;;
69910;SDS011;63555;49.920;17.868;2023-03-05T07:51:54;20.65;;;7.97;;
69910;SDS011;63555;49.920;17.868;2023-03-05T07:56:54;29.20;;;8.97;;
69910;SDS011;63555;49.920;17.868;2023-03-05T08:01:55;20.10;;;7.20;;
69910;SDS011;63555;49.920;17.868;2023-03-05T08:06:56;22.40;;;6.30;;
69910;SDS011;63555;49.920;17.868;2023-03-05T08:11:57;14.93;;;5.80;;
69910;SDS011;63555;49.920;17.868;2023-03-05T08:16:57;8.97;;;3.57;;
69910;SDS011;63555;49.920;17.868;2023-03-05T08:21:58;7.90;;;2.63;;
69910;SDS011;63555;49.920;17.868;2023-03-05T08:26:59;7.60;;;1.95;;
69910;SDS011;63555;49.920;17.868;2023-03-05T08:31:59;7.40;;;2.30;;
69910;SDS011;63555;49.920;17.868;2023-03-05T08:36:59;12.87;;;2.60;;
69910;SDS011;63555;49.920;17.868;2023-03-05T08:42:00;6.37;;;2.37;;
69910;SDS011;63555;49.920;17.868;2023-03-05T08:47:00;11.03;;;2.90;;
69910;SDS011;63555;49.920;17.868;2023-03-05T08:52:01;8.97;;;2.83;;
69910;SDS011;63555;49.920;17.868;2023-03-05T08:57:01;7.10;;;2.30;;
69910;SDS011;63555;49.920;17.868;2023-03-05T09:02:02;8.18;;;2.58;;
69910;SDS011;63555;49.920;17.868;2023-03-05T09:07:02;9.27;;;2.25;;
69910;SDS011;63555;49.920;17.868;2023-03-05T09:12:02;4.73;;;1.70;;
69910;SDS011;63555;49.920;17.868;2023-03-05T09:17:03;7.40;;;2.60;;
69910;SDS011;63555;49.920;17.868;2023-03-05T09:22:03;5.93;;;1.70;;
69910;SDS011;63555;49.920;17.868;2023-03-05T09:27:04;5.93;;;1.60;;
69910;SDS011;63555;49.920;17.868;2023-03-05T09:32:04;9.07;;;2.47;;
69910;SDS011;63555;49.920;17.868;2023-03-05T09:37:05;6.77;;;1.70;;
69910;SDS011;63555;49.920;17.868;2023-03-05T09:52:53;6.50;;;1.75;;
69910;SDS011;63555;49.920;17.868;2023-03-05T09:57:57;5.38;;;1.65;;
69910;SDS011;63555;49.920;17.868;2023-03-05T10:03:29;6.67;;;1.80;;
69910;SDS011;63555;49.920;17.868;2023-03-05T10:13:41;3.83;;;1.50;;
69910;SDS011;63555;49.920;17.868;2023-03-05T10:24:10;5.65;;;1.50;;
69910;SDS011;63555;49.920;17.868;2023-03-05T10:35:03;3.78;;;1.23;;
69910;SDS011;63555;49.920;17.868;2023-03-05T10:40:17;4.20;;;1.37;;
69910;SDS011;63555;49.920;17.868;2023-03-05T10:45:40;7.18;;;2.28;;
69910;SDS011;63555;49.920;17.868;2023-03-05T10:50:45;5.18;;;1.80;;
69910;SDS011;63555;49.920;17.868;2023-03-05T10:55:50;5.83;;;1.47;;
69910;SDS011;63555;49.920;17.868;2023-03-05T11:06:26;5.43;;;1.70;;
69910;SDS011;63555;49.920;17.868;2023-03-05T11:11:31;10.38;;;1.58;;
69910;SDS011;63555;49.920;17.868;2023-03-05T11:16:33;6.90;;;1.70;;
69910;SDS011;63555;49.920;17.868;2023-03-05T11:22:30;9.65;;;1.40;;
69910;SDS011;63555;49.920;17.868;2023-03-05T11:27:25;5.00;;;1.40;;
69910;SDS011;63555;49.920;17.868;2023-03-05T11:32:34;3.55;;;0.70;;
69910;SDS011;63555;49.920;17.868;2023-03-05T11:37:35;2.07;;;0.70;;
69910;SDS011;63555;49.920;17.868;2023-03-05T11:42:36;2.60;;;0.60;;
69910;SDS011;63555;49.920;17.868;2023-03-05T11:47:41;1.90;;;0.50;;
69910;SDS011;63555;49.920;17.868;2023-03-05T11:52:51;2.85;;;0.60;;
69910;SDS011;63555;49.920;17.868;2023-03-05T11:58:09;1.60;;;0.40;;
69910;SDS011;63555;49.920;17.868;2023-03-05T12:03:22;1.70;;;0.47;;
69910;SDS011;63555;49.920;17.868;2023-03-05T12:08:27;3.78;;;0.75;;
69910;SDS011;63555;49.920;17.868;2023-03-05T12:14:16;3.63;;;0.80;;
69910;SDS011;63555;49.920;17.868;2023-03-05T12:24:02;3.35;;;0.80;;
69910;SDS011;63555;49.920;17.868;2023-03-05T12:29:26;3.10;;;0.80;;
69910;SDS011;63555;49.920;17.868;2023-03-05T12:39:45;3.43;;;1.00;;
69910;SDS011;63555;49.920;17.868;2023-03-05T13:01:15;3.22;;;0.60;;
69910;SDS011;63555;49.920;17.868;2023-03-05T13:06:27;2.25;;;0.65;;
69910;SDS011;63555;49.920;17.868;2023-03-05T13:11:31;2.25;;;0.70;;
69910;SDS011;63555;49.920;17.868;2023-03-05T13:16:37;1.83;;;0.50;;
69910;SDS011;63555;49.920;17.868;2023-03-05T13:21:38;3.30;;;0.60;;
69910;SDS011;63555;49.920;17.868;2023-03-05T13:26:39;3.87;;;0.80;;
69910;SDS011;63555;49.920;17.868;2023-03-05T13:31:44;2.25;;;0.70;;
69910;SDS011;63555;49.920;17.868;2023-03-05T13:37:45;2.93;;;0.90;;
69910;SDS011;63555;49.920;17.868;2023-03-05T13:42:19;3.28;;;1.30;;
69910;SDS011;63555;49.920;17.868;2023-03-05T13:47:25;4.85;;;1.70;;
69910;SDS011;63555;49.920;17.868;2023-03-05T13:52:29;4.30;;;1.67;;
69910;SDS011;63555;49.920;17.868;2023-03-05T13:57:38;5.13;;;1.17;;
69910;SDS011;63555;49.920;17.868;2023-03-05T14:02:41;4.70;;;0.80;;
69910;SDS011;63555;49.920;17.868;2023-03-05T14:07:43;5.05;;;1.67;;
69910;SDS011;63555;49.920;17.868;2023-03-05T14:12:47;3.55;;;1.70;;
69910;SDS011;63555;49.920;17.868;2023-03-05T14:17:50;4.20;;;1.90;;
69910;SDS011;63555;49.920;17.868;2023-03-05T14:22:52;4.57;;;1.42;;
69910;SDS011;63555;49.920;17.868;2023-03-05T14:27:56;3.57;;;1.33;;
69910;SDS011;63555;49.920;17.868;2023-03-05T14:32:57;6.82;;;1.48;;
69910;SDS011;63555;49.920;17.868;2023-03-05T14:37:59;6.90;;;2.17;;
69910;SDS011;63555;49.920;17.868;2023-03-05T14:43:04;2.95;;;1.27;;
69910;SDS011;63555;49.920;17.868;2023-03-05T14:48:05;3.33;;;1.40;;
69910;SDS011;63555;49.920;17.868;2023-03-05T14:53:08;2.70;;;1.20;;
69910;SDS011;63555;49.920;17.868;2023-03-05T14:58:14;4.20;;;1.67;;
69910;SDS011;63555;49.920;17.868;2023-03-05T15:03:18;4.95;;;2.00;;
69910;SDS011;63555;49.920;17.868;2023-03-05T15:08:23;4.13;;;1.70;;
69910;SDS011;63555;49.920;17.868;2023-03-05T15:13:26;5.07;;;1.70;;
69910;SDS011;63555;49.920;17.868;2023-03-05T15:18:26;5.00;;;1.60;;
69910;SDS011;63555;49.920;17.868;2023-03-05T15:23:27;4.05;;;1.90;;
69910;SDS011;63555;49.920;17.868;2023-03-05T15:28:36;5.03;;;1.75;;
69910;SDS011;63555;49.920;17.868;2023-03-05T15:33:37;5.15;;;1.95;;
69910;SDS011;63555;49.920;17.868;2023-03-05T15:38:40;5.10;;;2.30;;
69910;SDS011;63555;49.920;17.868;2023-03-05T15:43:42;5.88;;;2.28;;
69910;SDS011;63555;49.920;17.868;2023-03-05T15:48:42;5.43;;;2.43;;
69910;SDS011;63555;49.920;17.868;2023-03-05T15:53:48;4.95;;;2.58;;
69910;SDS011;63555;49.920;17.868;2023-03-05T15:58:49;4.50;;;2.00;;
69910;SDS011;63555;49.920;17.868;2023-03-05T16:03:49;5.20;;;2.53;;
69910;SDS011;63555;49.920;17.868;2023-03-05T16:08:52;7.43;;;2.53;;
69910;SDS011;63555;49.920;17.868;2023-03-05T16:13:56;5.05;;;2.33;;
69910;SDS011;63555;49.920;17.868;2023-03-05T16:19:04;6.50;;;2.10;;
69910;SDS011;63555;49.920;17.868;2023-03-05T16:24:06;5.15;;;2.28;;
69910;SDS011;63555;49.920;17.868;2023-03-05T16:29:07;5.73;;;2.20;;
69910;SDS011;63555;49.920;17.868;2023-03-05T16:34:10;5.20;;;2.10;;
69910;SDS011;63555;49.920;17.868;2023-03-05T16:39:13;4.47;;;2.00;;
69910;SDS011;63555;49.920;17.868;2023-03-05T16:44:13;4.43;;;2.15;;
69910;SDS011;63555;49.920;17.868;2023-03-05T16:49:19;4.17;;;1.80;;
69910;SDS011;63555;49.920;17.868;2023-03-05T16:54:20;5.63;;;1.90;;
69910;SDS011;63555;49.920;17.868;2023-03-05T16:59:21;4.93;;;1.73;;
69910;SDS011;63555;49.920;17.868;2023-03-05T17:04:21;4.27;;;1.97;;
69910;SDS011;63555;49.920;17.868;2023-03-05T17:09:22;3.27;;;1.73;;
69910;SDS011;63555;49.920;17.868;2023-03-05T17:14:25;4.82;;;2.10;;
69910;SDS011;63555;49.920;17.868;2023-03-05T17:19:26;4.17;;;1.90;;
69910;SDS011;63555;49.920;17.868;2023-03-05T17:24:26;5.00;;;1.90;;
69910;SDS011;63555;49.920;17.868;2023-03-05T17:29:27;5.77;;;2.30;;
69910;SDS011;63555;49.920;17.868;2023-03-05T17:34:28;8.70;;;1.98;;
69910;SDS011;63555;49.920;17.868;2023-03-05T17:39:29;4.07;;;1.97;;
69910;SDS011;63555;49.920;17.868;2023-03-05T17:44:29;4.47;;;1.87;;
69910;SDS011;63555;49.920;17.868;2023-03-05T17:49:30;5.17;;;2.23;;
69910;SDS011;63555;49.920;17.868;2023-03-05T17:54:30;4.97;;;2.10;;
69910;SDS011;63555;49.920;17.868;2023-03-05T17:59:31;5.68;;;2.60;;
69910;SDS011;63555;49.920;17.868;2023-03-05T18:04:31;6.87;;;2.10;;
69910;SDS011;63555;49.920;17.868;2023-03-05T18:09:32;5.57;;;1.93;;
69910;SDS011;63555;49.920;17.868;2023-03-05T18:14:33;6.53;;;2.70;;
69910;SDS011;63555;49.920;17.868;2023-03-05T18:19:33;7.47;;;2.27;;
69910;SDS011;63555;49.920;17.868;2023-03-05T18:24:33;3.93;;;1.70;;
69910;SDS011;63555;49.920;17.868;2023-03-05T18:29:34;5.03;;;2.00;;
69910;SDS011;63555;49.920;17.868;2023-03-05T18:34:34;6.03;;;1.90;;
69910;SDS011;63555;49.920;17.868;2023-03-05T18:39:36;5.13;;;2.00;;
69910;SDS011;63555;49.920;17.868;2023-03-05T18:44:37;4.68;;;2.13;;
69910;SDS011;63555;49.920;17.868;2023-03-05T18:49:37;6.80;;;2.80;;
69910;SDS011;63555;49.920;17.868;2023-03-05T18:54:37;6.90;;;3.03;;
69910;SDS011;63555;49.920;17.868;2023-03-05T18:59:39;5.87;;;2.67;;
69910;SDS011;63555;49.920;17.868;2023-03-05T19:04:39;6.33;;;2.30;;
69910;SDS011;63555;49.920;17.868;2023-03-05T19:09:45;5.78;;;2.88;;
69910;SDS011;63555;49.920;17.868;2023-03-05T19:14:54;5.85;;;2.30;;
69910;SDS011;63555;49.920;17.868;2023-03-05T19:19:55;7.23;;;2.30;;
69910;SDS011;63555;49.920;17.868;2023-03-05T19:24:58;7.13;;;3.00;;
69910;SDS011;63555;49.920;17.868;2023-03-05T19:29:59;8.37;;;3.47;;
69910;SDS011;63555;49.920;17.868;2023-03-05T19:34:59;5.57;;;2.53;;
69910;SDS011;63555;49.920;17.868;2023-03-05T19:40:00;5.55;;;2.40;;
69910;SDS011;63555;49.920;17.868;2023-03-05T19:45:01;4.50;;;2.00;;
69910;SDS011;63555;49.920;17.868;2023-03-05T19:50:02;4.43;;;1.80;;
69910;SDS011;63555;49.920;17.868;2023-03-05T19:55:04;4.20;;;1.80;;
69910;SDS011;63555;49.920;17.868;2023-03-05T20:00:06;5.45;;;1.50;;
69910;SDS011;63555;49.920;17.868;2023-03-05T20:05:07;3.93;;;1.70;;
69910;SDS011;63555;49.920;17.868;2023-03-05T20:10:08;11.00;;;1.67;;
69910;SDS011;63555;49.920;17.868;2023-03-05T20:15:09;4.83;;;2.10;;
69910;SDS011;63555;49.920;17.868;2023-03-05T20:20:19;4.22;;;1.80;;
69910;SDS011;63555;49.920;17.868;2023-03-05T20:25:19;6.13;;;2.47;;
69910;SDS011;63555;49.920;17.868;2023-03-05T20:30:21;5.88;;;2.38;;
69910;SDS011;63555;49.920;17.868;2023-03-05T20:35:21;7.67;;;2.90;;
69910;SDS011;63555;49.920;17.868;2023-03-05T20:40:22;6.23;;;2.10;;
69910;SDS011;63555;49.920;17.868;2023-03-05T20:45:22;4.23;;;1.90;;
69910;SDS011;63555;49.920;17.868;2023-03-05T20:50:22;5.03;;;1.77;;
69910;SDS011;63555;49.920;17.868;2023-03-05T20:55:25;5.72;;;1.88;;
69910;SDS011;63555;49.920;17.868;2023-03-05T21:00:28;3.72;;;1.67;;
69910;SDS011;63555;49.920;17.868;2023-03-05T21:05:29;4.53;;;1.77;;
69910;SDS011;63555;49.920;17.868;2023-03-05T21:10:30;4.80;;;1.88;;
69910;SDS011;63555;49.920;17.868;2023-03-05T21:15:30;4.27;;;1.70;;
69910;SDS011;63555;49.920;17.868;2023-03-05T21:20:31;4.37;;;2.00;;
69910;SDS011;63555;49.920;17.868;2023-03-05T21:25:32;4.53;;;1.77;;
69910;SDS011;63555;49.920;17.868;2023-03-05T21:30:36;5.20;;;2.00;;
69910;SDS011;63555;49.920;17.868;2023-03-05T21:35:39;4.97;;;2.23;;
69910;SDS011;63555;49.920;17.868;2023-03-05T21:40:41;5.50;;;2.17;;
69910;SDS011;63555;49.920;17.868;2023-03-05T21:45:44;5.95;;;2.53;;
69910;SDS011;63555;49.920;17.868;2023-03-05T21:50:48;5.50;;;2.20;;
69910;SDS011;63555;49.920;17.868;2023-03-05T21:55:49;8.15;;;2.92;;
69910;SDS011;63555;49.920;17.868;2023-03-05T22:01:26;7.10;;;2.63;;
69910;SDS011;63555;49.920;17.868;2023-03-05T22:06:26;11.50;;;4.87;;
69910;SDS011;63555;49.920;17.868;2023-03-05T22:11:29;19.17;;;6.53;;
69910;SDS011;63555;49.920;17.868;2023-03-05T22:16:30;18.90;;;8.77;;
69910;SDS011;63555;49.920;17.868;2023-03-05T22:21:30;22.30;;;9.13;;
69910;SDS011;63555;49.920;17.868;2023-03-05T22:26:37;24.20;;;9.00;;
69910;SDS011;63555;49.920;17.868;2023-03-05T22:31:38;22.30;;;8.75;;
69910;SDS011;63555;49.920;17.868;2023-03-05T22:36:39;23.33;;;8.50;;
69910;SDS011;63555;49.920;17.868;2023-03-05T22:41:40;22.83;;;7.87;;
69910;SDS011;63555;49.920;17.868;2023-03-05T22:46:40;19.03;;;7.63;;
69910;SDS011;63555;49.920;17.868;2023-03-05T22:51:41;21.63;;;7.70;;
69910;SDS011;63555;49.920;17.868;2023-03-05T22:56:41;17.90;;;7.13;;
69910;SDS011;63555;49.920;17.868;2023-03-05T23:01:41;22.17;;;8.43;;
69910;SDS011;63555;49.920;17.868;2023-03-05T23:06:41;18.03;;;6.77;;
69910;SDS011;63555;49.920;17.868;2023-03-05T23:11:42;22.53;;;7.70;;
69910;SDS011;63555;49.920;17.868;2023-03-05T23:16:42;23.20;;;8.20;;
69910;SDS011;63555;49.920;17.868;2023-03-05T23:21:43;18.93;;;7.93;;
69910;SDS011;63555;49.920;17.868;2023-03-05T23:26:43;24.87;;;8.67;;
69910;SDS011;63555;49.920;17.868;2023-03-05T23:31:43;17.97;;;7.80;;
69910;SDS011;63555;49.920;17.868;2023-03-05T23:36:44;16.63;;;7.23;;
69910;SDS011;63555;49.920;17.868;2023-03-05T23:41:44;17.17;;;7.33;;
69910;SDS011;63555;49.920;17.868;2023-03-05T23:46:44;19.00;;;8.20;;
69910;SDS011;63555;49.920;17.868;2023-03-05T23:51:45;20.87;;;8.53;;
69910;SDS011;63555;49.920;17.868;2023-03-05T23:56:45;26.83;;;9.27;;
